Vandalia, IL (62471)

1:43 PM CDT on July 30, 2014 (GMT -0500)
St. Elmo, Ilinois (KILSTELM3) Elev 620 ft | 39.02 °N, 88.83 °W | Change Station

Current weather conditions updated 2 minutes ago

Scattered Clouds
Scattered Clouds
81.2 °F
Feels Like 81 °F
N
0.0
Wind Variable Wind from NNW
Gusts 7.0 mph

Today is forecast to be nearly the same temperature as yesterday.

Today
High -- | Low -- °F
--% Chance of Precip.
Yesterday
High -- | Low -- °F
Precip. -- in
5:55 AM 8:09 PM
Waxing Crescent, 13% visible
Pressure 30.08 in
Visibility 10.0 miles
Clouds Scattered Clouds 8500 ft
Heat Index 81 °F
Dew Point 58 °F
Humidity 46%
Rainfall 0.00 in
Snow Depth Not available.
UV 9 out of 12
Pollen 6.80 out of 12
Air Quality Not available.
Flu Activity Not available.
METAR KENL 301835Z AUTO 00000KT 10SM SCT085 32/11 A3008 RMK AO2 T03170107 TSNO

More Conditions Fewer Conditions

Pressure 30.08 in
Visibility 10.0 miles
Clouds Scattered Clouds 8500 ft
Heat Index 81 °F
Dew Point 58 °F
Humidity 46%
Rainfall 0.00 in
Snow Depth Not available.
UV 9 out of 12
Pollen 6.80 out of 12
Air Quality Not available.
Flu Activity Not available.
METAR KENL 301835Z AUTO 00000KT 10SM SCT085 32/11 A3008 RMK AO2 T03170107 TSNO

More Conditions Fewer Conditions

10-Day Weather Forecast

Almanac

Astronomy

Jul. 30, 2014 Rise Set
Actual Time 5:55 AM CDT 8:09 PM CDT
Civil Twilight 5:25 AM CDT 8:39 PM CDT
Nautical Twilight 4:48 AM CDT 9:16 PM CDT
Astronomical Twilight 4:08 AM CDT 9:56 PM CDT
Moon 9:24 AM CDT 9:54 PM CDT
Length of Visible Light 15h 13m
Length of Day
14h 14m
Tomorrow will be 1m 52s shorter.
Waxing Crescent, 13% of the Moon is Illuminated
Today
Waxing Crescent
Aug 3
First Quarter
Aug 10
Full
Aug 17
Last Quarter
Aug 25
New

Today's Extremes

State Highs State Lows

Community

WunderPhotos

Upload Photos

1,739,152 photos uploaded!

Nearby

Snow Depth

Station Depth Elevation
No new snow has been reported.

Earthquake Activity

City Distance Mag. Time & Date
No recent earthquake activity has been reported nearby.
Minimum magnitude displayed is 2.5.

Coastal Water Temperatures

Place Temperature
No Stations Reporting

Nearby Weather Stations

Station Location Temp. Heat Index Dew Point Humidity Wind Precip. Elev Updated Type
St. Elmo, Ilinois, St. Elmo, IL 81.2 °F 81 °F 58 °F 46% NNW  at  0.0 mph 0.00 in / hr 620 ft 1:41 PM CDT Normal
MesoWest STPETR , Saint Peter, IL 81 °F 79 °F - - North  at  - 0.00 in / hr 585 ft 12:40 PM CDT MADIS
Kinmundy Atmospheric Research Laboratory, Kinmundy, IL 80.1 °F 81 °F 62 °F 54% NNW  at  1.0 mph 0.00 in / hr 570 ft 1:36 PM CDT Normal
Alma Weather Station, Alma, IL 80.3 °F 81 °F 57 °F 45% SW  at  5.0 mph 0.00 in / hr 595 ft 1:42 PM CDT Rapid Fire
Eckcellent Karaoke, Hillsboro, IL 80.6 °F 82 °F 62 °F 53% NNE  at  0.0 mph 0.00 in / hr 614 ft 1:36 PM CDT Normal
MesoWest NOKOMS , Nokomis, IL 83 °F 81 °F - - North  at  - 0.00 in / hr 659 ft 12:40 PM CDT MADIS

Show More Stations Show Fewer Stations